createdAt,value
2024-01-20T00:03:29.581Z,-2.03
2024-01-20T00:08:31.858Z,-2.01
2024-01-20T00:13:33.864Z,-1.97
2024-01-20T00:18:36.924Z,-1.97
2024-01-20T00:23:39.463Z,-2.00
2024-01-20T00:28:42.679Z,-2.02
2024-01-20T00:33:46.548Z,-2.15
2024-01-20T00:38:48.676Z,-2.23
2024-01-20T00:43:50.739Z,-2.26
2024-01-20T00:48:52.788Z,-2.49
2024-01-20T00:53:54.899Z,-2.53
2024-01-20T00:58:57.702Z,-2.41
2024-01-20T01:03:59.811Z,-2.46
2024-01-20T01:09:01.707Z,-2.60
2024-01-20T01:14:03.903Z,-2.56
2024-01-20T01:19:05.865Z,-2.61
2024-01-20T01:24:08.064Z,-2.66
2024-01-20T01:29:10.301Z,-2.72
2024-01-20T01:34:12.317Z,-2.93
2024-01-20T01:39:14.316Z,-3.05
2024-01-20T01:44:16.337Z,-3.08
2024-01-20T01:49:18.551Z,-3.03
2024-01-20T01:54:22.043Z,-2.95
2024-01-20T01:59:24.671Z,-3.02
2024-01-20T02:04:27.025Z,-3.03
2024-01-20T02:09:30.041Z,-3.01
2024-01-20T02:14:32.295Z,-3.20
2024-01-20T02:19:41.140Z,-3.47
2024-01-20T02:24:52.289Z,-3.72
2024-01-20T02:29:55.244Z,-3.79
2024-01-20T02:34:57.305Z,-3.77
2024-01-20T02:40:00.253Z,-3.87
2024-01-20T02:45:02.166Z,-3.73
2024-01-20T02:50:04.613Z,-3.64
2024-01-20T02:55:06.706Z,-3.61
2024-01-20T03:00:09.287Z,-3.70
2024-01-20T03:05:12.465Z,-3.68
2024-01-20T03:10:14.760Z,-3.71
2024-01-20T03:15:16.758Z,-3.72
2024-01-20T03:20:19.073Z,-3.67
2024-01-20T03:25:21.025Z,-3.73
2024-01-20T03:30:23.108Z,-3.75
2024-01-20T03:35:25.037Z,-3.86
2024-01-20T03:40:28.481Z,-3.83
2024-01-20T03:45:31.105Z,-3.72
2024-01-20T03:50:33.061Z,-3.71
2024-01-20T03:55:35.205Z,-3.83
2024-01-20T04:00:37.262Z,-3.92
2024-01-20T04:05:40.620Z,-4.07
2024-01-20T04:10:42.602Z,-4.22
2024-01-20T04:16:04.674Z,-4.25
2024-01-20T04:21:06.228Z,-4.41
2024-01-20T04:26:08.166Z,-4.37
2024-01-20T04:31:10.204Z,-4.29
2024-01-20T04:36:12.067Z,-4.19
2024-01-20T04:41:14.186Z,-4.27
2024-01-20T04:46:16.602Z,-4.30
2024-01-20T04:51:18.689Z,-4.27
2024-01-20T04:56:21.368Z,-4.27
2024-01-20T05:01:23.521Z,-4.24
2024-01-20T05:06:26.151Z,-4.32
2024-01-20T05:11:28.070Z,-4.34
2024-01-20T05:16:29.968Z,-4.32
2024-01-20T05:21:32.011Z,-4.31
2024-01-20T05:26:34.438Z,-4.43
2024-01-20T05:31:36.302Z,-4.57
2024-01-20T05:36:38.265Z,-4.65
2024-01-20T05:41:40.187Z,-4.64
2024-01-20T05:46:42.279Z,-4.63
2024-01-20T05:51:44.362Z,-4.59
2024-01-20T05:56:46.745Z,-4.62
2024-01-20T06:01:51.538Z,-4.64
2024-01-20T06:06:53.737Z,-4.64
2024-01-20T06:11:55.560Z,-4.71
2024-01-20T06:16:57.461Z,-4.75
2024-01-20T06:21:59.417Z,-4.78
2024-01-20T06:27:01.552Z,-4.82
2024-01-20T06:32:03.453Z,-4.81
2024-01-20T06:37:06.212Z,-4.68
2024-01-20T06:42:11.428Z,-4.71
2024-01-20T06:47:13.428Z,-4.77
2024-01-20T06:52:15.297Z,-4.79
2024-01-20T06:57:17.200Z,-4.77
2024-01-20T07:02:19.224Z,-4.78
2024-01-20T07:07:21.005Z,-4.84
2024-01-20T07:12:22.858Z,-4.76
2024-01-20T07:17:24.800Z,-4.68
2024-01-20T07:22:26.707Z,-4.71
2024-01-20T07:27:28.972Z,-4.74
2024-01-20T07:32:31.456Z,-4.74
2024-01-20T07:37:37.081Z,-4.74
2024-01-20T07:42:41.302Z,-4.75
2024-01-20T07:47:43.225Z,-4.68
2024-01-20T07:52:46.115Z,-4.19
2024-01-20T07:57:48.481Z,-4.25
2024-01-20T08:02:50.536Z,-4.29
2024-01-20T08:07:52.455Z,-4.33
2024-01-20T08:12:54.316Z,-4.25
2024-01-20T08:17:56.418Z,-4.12
2024-01-20T08:22:58.372Z,-4.05
2024-01-20T08:28:00.314Z,-3.92
2024-01-20T08:33:04.435Z,-3.83
2024-01-20T08:38:07.248Z,-3.66
2024-01-20T08:43:09.306Z,-3.52
2024-01-20T08:48:11.568Z,-3.39
2024-01-20T08:53:15.571Z,-3.26
2024-01-20T08:58:17.415Z,-3.11
2024-01-20T09:03:21.047Z,-2.99
2024-01-20T09:08:23.092Z,-2.90
2024-01-20T09:13:25.441Z,-2.84
2024-01-20T09:18:27.360Z,-2.72
2024-01-20T09:23:29.561Z,-2.62
2024-01-20T09:28:31.419Z,-2.58
2024-01-20T09:33:33.764Z,-2.43
2024-01-20T09:38:35.624Z,-2.35
2024-01-20T09:43:39.827Z,-2.24
2024-01-20T09:48:44.519Z,-2.12
2024-01-20T09:53:49.248Z,-2.01
2024-01-20T09:58:52.689Z,-1.91
2024-01-20T10:04:01.488Z,-1.78
2024-01-20T10:09:04.316Z,-1.63
2024-01-20T10:14:07.544Z,-1.53
2024-01-20T10:19:09.518Z,-1.40
2024-01-20T10:24:11.837Z,-1.35
2024-01-20T10:29:14.291Z,-1.24
2024-01-20T10:34:16.230Z,-1.07
2024-01-20T10:39:21.136Z,-0.98
2024-01-20T10:44:28.898Z,-0.88
2024-01-20T10:49:30.865Z,-0.75
2024-01-20T10:54:33.918Z,-0.69
2024-01-20T10:59:40.959Z,-0.58
2024-01-20T11:04:45.949Z,-0.52
2024-01-20T11:09:58.424Z,-0.44
2024-01-20T11:15:01.159Z,-0.28
2024-01-20T11:20:08.433Z,-0.17
2024-01-20T11:25:11.787Z,-0.04
2024-01-20T11:30:15.717Z,0.06
2024-01-20T11:35:19.077Z,0.21
2024-01-20T11:40:21.057Z,0.36
2024-01-20T11:45:22.985Z,0.48
2024-01-20T11:50:24.834Z,0.74
2024-01-20T11:55:27.388Z,0.91
2024-01-20T12:00:29.458Z,1.05
2024-01-20T12:05:31.566Z,1.23
2024-01-20T12:10:34.111Z,1.46
2024-01-20T12:15:36.667Z,1.57
2024-01-20T12:20:38.900Z,1.71
2024-01-20T12:25:41.080Z,1.86
2024-01-20T12:30:43.208Z,2.00
2024-01-20T12:35:45.926Z,2.25
2024-01-20T12:40:48.336Z,2.55
2024-01-20T12:45:50.282Z,2.65
2024-01-20T12:50:52.619Z,2.68
2024-01-20T12:55:54.496Z,2.67
2024-01-20T13:00:56.361Z,2.73
2024-01-20T13:05:58.337Z,2.78
2024-01-20T13:11:00.335Z,2.72
2024-01-20T13:16:02.243Z,2.85
2024-01-20T13:21:04.310Z,3.25
2024-01-20T13:26:06.606Z,3.34
2024-01-20T13:31:08.597Z,3.41
2024-01-20T13:36:10.538Z,3.25
2024-01-20T13:41:12.517Z,3.01
2024-01-20T13:46:14.744Z,2.87
2024-01-20T13:51:18.697Z,2.75
2024-01-20T13:56:22.196Z,2.63
2024-01-20T14:01:24.869Z,2.56
2024-01-20T14:06:26.802Z,2.51
2024-01-20T14:11:28.914Z,2.41
2024-01-20T14:16:31.602Z,2.30
2024-01-20T14:21:34.203Z,2.19
2024-01-20T14:26:36.183Z,2.16
2024-01-20T14:31:49.010Z,2.15
2024-01-20T14:36:53.851Z,2.16
2024-01-20T14:41:55.722Z,2.11
2024-01-20T14:46:57.616Z,2.09
2024-01-20T14:51:59.437Z,2.05
2024-01-20T14:57:01.358Z,1.97
2024-01-20T15:02:05.352Z,1.93
2024-01-20T15:07:08.142Z,1.89
2024-01-20T15:12:10.041Z,1.91
2024-01-20T15:17:13.475Z,1.84
2024-01-20T15:22:15.601Z,1.78
2024-01-20T15:27:18.901Z,1.69
2024-01-20T15:32:20.876Z,1.34
2024-01-20T15:37:23.061Z,1.14
2024-01-20T15:42:24.924Z,1.15
2024-01-20T15:47:26.844Z,1.03
2024-01-20T15:52:29.084Z,0.85
2024-01-20T15:57:31.333Z,0.78
2024-01-20T16:02:33.796Z,0.68
2024-01-20T16:07:35.780Z,0.50
2024-01-20T16:12:37.820Z,0.34
2024-01-20T16:17:42.087Z,0.28
2024-01-20T16:22:44.373Z,0.24
2024-01-20T16:27:46.569Z,0.20
2024-01-20T16:32:48.623Z,0.08
2024-01-20T16:38:16.383Z,-0.01
2024-01-20T16:43:18.830Z,-0.12
2024-01-20T16:48:20.860Z,-0.18
2024-01-20T16:53:23.098Z,-0.39
2024-01-20T16:58:24.926Z,-0.42
2024-01-20T17:03:26.829Z,-0.57
2024-01-20T17:08:28.867Z,-0.71
2024-01-20T17:13:31.020Z,-0.73
2024-01-20T17:18:33.800Z,-0.76
2024-01-20T17:23:36.006Z,-0.83
2024-01-20T17:28:37.944Z,-0.88
2024-01-20T17:33:40.058Z,-0.85
2024-01-20T17:38:41.983Z,-0.78
2024-01-20T17:43:45.441Z,-0.77
2024-01-20T17:48:47.479Z,-0.90
2024-01-20T17:53:49.320Z,-1.04
2024-01-20T17:58:51.290Z,-1.13
2024-01-20T18:03:53.377Z,-1.28
2024-01-20T18:08:57.592Z,-1.34
2024-01-20T18:13:59.778Z,-1.45
2024-01-20T18:19:01.622Z,-1.56
2024-01-20T18:24:05.322Z,-1.58
2024-01-20T18:29:07.318Z,-1.57
2024-01-20T18:34:09.392Z,-1.61
2024-01-20T18:39:11.737Z,-1.64
2024-01-20T18:44:15.719Z,-1.74
2024-01-20T18:49:18.502Z,-1.81
2024-01-20T18:54:20.366Z,-1.90
2024-01-20T18:59:22.374Z,-2.03
2024-01-20T19:04:24.442Z,-2.16
2024-01-20T19:09:27.136Z,-2.14
2024-01-20T19:14:29.151Z,-2.08
2024-01-20T19:19:32.917Z,-2.10
2024-01-20T19:24:35.817Z,-2.06
2024-01-20T19:29:37.829Z,-2.08
2024-01-20T19:34:40.160Z,-2.17
2024-01-20T19:39:44.162Z,-2.17
2024-01-20T19:44:48.336Z,-2.24
2024-01-20T19:49:54.312Z,-2.25
2024-01-20T19:54:56.303Z,-2.39
2024-01-20T19:59:58.240Z,-2.51
2024-01-20T20:05:00.744Z,-2.57
2024-01-20T20:10:02.721Z,-2.59
2024-01-20T20:15:05.626Z,-2.38
2024-01-20T20:20:08.253Z,-2.11
2024-01-20T20:25:10.493Z,-2.23
2024-01-20T20:30:12.582Z,-2.33
2024-01-20T20:35:15.615Z,-2.36
2024-01-20T20:40:17.982Z,-2.34
2024-01-20T20:45:20.361Z,-2.23
2024-01-20T20:50:22.299Z,-2.05
2024-01-20T20:55:24.450Z,-2.08
2024-01-20T21:00:26.245Z,-2.08
2024-01-20T21:05:28.139Z,-2.12
2024-01-20T21:10:30.006Z,-2.14
2024-01-20T21:15:33.525Z,-2.08
2024-01-20T21:20:36.594Z,-2.07
2024-01-20T21:25:38.613Z,-2.20
2024-01-20T21:30:40.506Z,-2.25
2024-01-20T21:35:42.568Z,-2.23
2024-01-20T21:40:47.514Z,-2.39
2024-01-20T21:45:50.093Z,-2.31
2024-01-20T21:50:52.029Z,-2.28
2024-01-20T21:55:53.882Z,-2.43
2024-01-20T22:00:56.000Z,-2.36
2024-01-20T22:05:58.194Z,-2.49
2024-01-20T22:11:00.021Z,-2.58
2024-01-20T22:16:01.965Z,-2.66
2024-01-20T22:21:04.995Z,-2.65
2024-01-20T22:26:10.492Z,-2.81
2024-01-20T22:31:12.512Z,-3.08
2024-01-20T22:36:14.597Z,-3.21
2024-01-20T22:41:17.854Z,-3.19
2024-01-20T22:46:19.726Z,-3.13
2024-01-20T22:51:23.154Z,-3.10
2024-01-20T22:56:25.286Z,-3.07
2024-01-20T23:01:27.176Z,-3.13
2024-01-20T23:06:29.190Z,-3.30
2024-01-20T23:11:31.357Z,-3.43
2024-01-20T23:16:33.260Z,-3.62
2024-01-20T23:21:35.246Z,-3.71
2024-01-20T23:26:43.000Z,-3.62
2024-01-20T23:31:45.582Z,-3.50
2024-01-20T23:36:47.647Z,-3.63
2024-01-20T23:41:49.800Z,-3.63
2024-01-20T23:46:51.805Z,-3.59
2024-01-20T23:51:54.578Z,-3.54
2024-01-20T23:56:57.423Z,-3.64
